createdAt,value
2018-05-25T00:01:34.068Z,4.18
2018-05-25T00:04:01.700Z,3.80
2018-05-25T00:06:29.365Z,4.10
2018-05-25T00:08:56.999Z,4.82
2018-05-25T00:11:24.697Z,4.70
2018-05-25T00:13:52.336Z,4.77
2018-05-25T00:16:20.791Z,4.18
2018-05-25T00:18:48.432Z,4.43
2018-05-25T00:21:16.112Z,4.40
2018-05-25T00:23:43.842Z,4.40
2018-05-25T00:26:12.329Z,4.50
2018-05-25T00:28:40.753Z,4.03
2018-05-25T00:31:08.416Z,4.40
2018-05-25T00:33:36.828Z,4.93
2018-05-25T00:36:04.528Z,4.87
2018-05-25T00:38:32.193Z,5.53
2018-05-25T00:40:59.825Z,4.57
2018-05-25T00:43:28.266Z,4.65
2018-05-25T00:45:55.908Z,4.78
2018-05-25T00:48:23.605Z,4.93
2018-05-25T00:50:51.240Z,4.72
2018-05-25T00:53:19.681Z,5.57
2018-05-25T00:55:47.326Z,5.25
2018-05-25T00:58:15.015Z,4.93
2018-05-25T01:00:42.685Z,4.73
2018-05-25T01:03:10.352Z,5.03
2018-05-25T01:05:37.984Z,5.32
2018-05-25T01:08:05.672Z,4.80
2018-05-25T01:10:34.064Z,6.43
2018-05-25T01:13:02.512Z,5.12
2018-05-25T01:15:30.143Z,3.95
2018-05-25T01:17:57.813Z,4.28
2018-05-25T01:20:26.214Z,5.87
2018-05-25T01:22:53.893Z,5.62
2018-05-25T01:25:21.529Z,5.47
2018-05-25T01:27:49.213Z,6.05
2018-05-25T01:30:17.700Z,5.18
2018-05-25T01:32:46.113Z,5.60
2018-05-25T01:35:13.791Z,5.97
2018-05-25T01:37:41.429Z,5.10
2018-05-25T01:40:09.897Z,6.43
2018-05-25T01:42:37.537Z,5.47
2018-05-25T01:45:05.221Z,6.65
2018-05-25T01:47:32.856Z,5.62
2018-05-25T01:50:01.284Z,6.03
2018-05-25T01:52:28.924Z,4.82
2018-05-25T01:54:57.352Z,5.87
2018-05-25T01:57:24.993Z,5.40
2018-05-25T01:59:53.466Z,8.27
2018-05-25T02:02:21.108Z,5.47
2018-05-25T02:04:48.772Z,5.65
2018-05-25T02:07:16.406Z,5.80
2018-05-25T02:09:44.865Z,5.80
2018-05-25T02:12:12.514Z,7.53
2018-05-25T02:14:40.187Z,7.68
2018-05-25T02:17:07.808Z,6.30
2018-05-25T02:19:36.223Z,5.62
2018-05-25T02:22:03.937Z,5.87
2018-05-25T02:24:31.564Z,5.97
2018-05-25T02:26:59.242Z,6.80
2018-05-25T02:29:26.888Z,6.25
2018-05-25T02:31:54.552Z,6.67
2018-05-25T02:34:22.185Z,6.05
2018-05-25T02:36:49.881Z,6.10
2018-05-25T02:39:17.529Z,6.30
2018-05-25T02:41:45.337Z,6.05
2018-05-25T02:44:12.995Z,6.47
2018-05-25T02:46:40.672Z,5.70
2018-05-25T02:49:08.331Z,6.45
2018-05-25T02:51:36.001Z,6.25
2018-05-25T02:54:03.632Z,7.03
2018-05-25T02:56:32.077Z,6.43
2018-05-25T02:58:59.720Z,6.28
2018-05-25T03:01:27.379Z,6.03
2018-05-25T03:03:55.808Z,6.20
2018-05-25T03:06:23.445Z,6.78
2018-05-25T03:08:51.881Z,6.20
2018-05-25T03:11:19.512Z,6.80
2018-05-25T03:13:47.210Z,6.62
2018-05-25T03:16:14.876Z,7.55
2018-05-25T03:18:42.584Z,6.18
2018-05-25T03:21:10.257Z,6.50
2018-05-25T03:23:37.924Z,6.35
2018-05-25T03:26:05.592Z,6.47
2018-05-25T03:28:33.296Z,6.47
2018-05-25T03:31:00.949Z,6.57
2018-05-25T03:33:28.617Z,6.20
2018-05-25T03:35:56.256Z,7.12
2018-05-25T03:38:23.928Z,5.78
2018-05-25T03:40:52.329Z,6.30
2018-05-25T03:43:19.996Z,7.10
2018-05-25T03:45:47.651Z,6.25
2018-05-25T03:48:16.130Z,6.47
2018-05-25T03:50:43.788Z,6.73
2018-05-25T03:53:11.456Z,7.03
2018-05-25T03:55:39.103Z,6.90
2018-05-25T03:58:06.773Z,6.65
2018-05-25T04:00:46.137Z,7.03
2018-05-25T04:03:13.844Z,6.90
2018-05-25T04:05:41.476Z,7.15
2018-05-25T04:08:09.133Z,7.07
2018-05-25T04:10:36.801Z,6.40
2018-05-25T04:13:04.433Z,6.32
2018-05-25T04:15:32.108Z,7.57
2018-05-25T04:17:59.765Z,6.68
2018-05-25T04:20:27.444Z,7.73
2018-05-25T04:22:55.072Z,6.47
2018-05-25T04:25:22.742Z,6.90
2018-05-25T04:27:50.429Z,6.97
2018-05-25T04:30:18.164Z,7.25
2018-05-25T04:32:46.569Z,6.80
2018-05-25T04:35:15.052Z,7.40
2018-05-25T04:37:42.705Z,6.95
2018-05-25T04:40:10.381Z,7.43
2018-05-25T04:42:38.019Z,6.50
2018-05-25T04:45:05.700Z,6.18
2018-05-25T04:47:33.352Z,7.12
2018-05-25T04:50:01.780Z,7.17
2018-05-25T04:52:29.453Z,7.10
2018-05-25T04:54:57.137Z,7.80
2018-05-25T04:57:24.760Z,6.65
2018-05-25T04:59:52.432Z,6.50
2018-05-25T05:02:20.096Z,7.50
2018-05-25T05:04:48.508Z,6.37
2018-05-25T05:07:16.229Z,6.90
2018-05-25T05:09:43.888Z,6.37
2018-05-25T05:12:11.568Z,6.60
2018-05-25T05:14:39.214Z,6.70
2018-05-25T05:17:06.881Z,6.40
2018-05-25T05:19:34.511Z,6.43
2018-05-25T05:22:02.261Z,6.12
2018-05-25T05:24:29.896Z,6.20
2018-05-25T05:26:57.573Z,6.15
2018-05-25T05:29:25.224Z,6.67
2018-05-25T05:31:53.661Z,6.93
2018-05-25T05:34:21.321Z,5.75
2018-05-25T05:36:48.984Z,5.40
2018-05-25T05:39:16.620Z,6.82
2018-05-25T05:41:45.202Z,7.85
2018-05-25T05:44:12.981Z,8.40
2018-05-25T05:46:40.685Z,6.57
2018-05-25T05:49:09.076Z,6.25
2018-05-25T05:51:37.509Z,5.40
2018-05-25T05:54:05.163Z,7.00
2018-05-25T05:56:32.848Z,5.72
2018-05-25T05:59:00.487Z,7.82
2018-05-25T06:01:28.177Z,7.95
2018-05-25T06:03:55.833Z,8.60
2018-05-25T06:06:24.268Z,4.78
2018-05-25T06:08:51.908Z,7.50
2018-05-25T06:11:19.576Z,4.73
2018-05-25T06:13:48.013Z,5.47
2018-05-25T06:16:15.752Z,7.45
2018-05-25T06:18:43.429Z,6.33
2018-05-25T06:21:11.052Z,4.72
2018-05-25T06:23:38.744Z,7.45
2018-05-25T06:26:06.411Z,5.37
2018-05-25T06:28:34.125Z,5.70
2018-05-25T06:31:01.773Z,4.15
2018-05-25T06:33:30.212Z,6.35
2018-05-25T06:35:57.841Z,5.85
2018-05-25T06:38:26.286Z,4.97
2018-05-25T06:40:53.933Z,4.32
2018-05-25T06:43:21.628Z,5.97
2018-05-25T06:45:49.256Z,6.53
2018-05-25T06:48:17.704Z,5.93
2018-05-25T06:50:45.403Z,5.53
2018-05-25T06:53:13.953Z,4.90
2018-05-25T06:55:41.596Z,5.28
2018-05-25T06:58:09.264Z,6.20
2018-05-25T07:00:37.659Z,4.62
2018-05-25T07:03:06.109Z,5.37
2018-05-25T07:05:33.732Z,5.35
2018-05-25T07:08:01.364Z,5.03
2018-05-25T07:10:29.824Z,5.35
2018-05-25T07:12:57.493Z,4.62
2018-05-25T07:15:25.153Z,5.10
2018-05-25T07:17:52.780Z,5.23
2018-05-25T07:20:20.440Z,3.90
2018-05-25T07:22:48.097Z,4.00
2018-05-25T07:25:15.820Z,4.47
2018-05-25T07:27:43.491Z,4.68
2018-05-25T07:30:11.942Z,4.10
2018-05-25T07:32:39.581Z,5.23
2018-05-25T07:35:07.253Z,5.30
2018-05-25T07:37:34.893Z,5.10
2018-05-25T07:40:02.606Z,2.93
2018-05-25T07:42:30.237Z,5.00
2018-05-25T07:44:57.906Z,4.32
2018-05-25T07:47:25.552Z,3.45
2018-05-25T07:49:53.216Z,4.10
2018-05-25T07:52:20.847Z,4.72
2018-05-25T07:54:49.272Z,4.80
2018-05-25T07:57:16.917Z,4.25
2018-05-25T07:59:45.336Z,4.67
2018-05-25T08:02:13.880Z,4.43
2018-05-25T08:04:41.504Z,3.83
2018-05-25T08:07:09.168Z,4.18
2018-05-25T08:09:36.816Z,5.32
2018-05-25T08:12:05.250Z,5.00
2018-05-25T08:14:32.904Z,4.22
2018-05-25T08:17:00.613Z,3.58
2018-05-25T08:19:28.242Z,5.07
2018-05-25T08:21:56.722Z,4.12
2018-05-25T08:24:24.343Z,3.10
2018-05-25T08:26:52.021Z,5.00
2018-05-25T08:29:19.658Z,3.10
2018-05-25T08:31:47.810Z,3.50
2018-05-25T08:34:16.265Z,4.43
2018-05-25T08:36:43.953Z,4.37
2018-05-25T08:39:11.576Z,4.00
2018-05-25T08:41:39.252Z,4.73
2018-05-25T08:44:07.652Z,3.75
2018-05-25T08:46:35.312Z,4.40
2018-05-25T08:49:03.717Z,5.37
2018-05-25T08:51:31.607Z,3.30
2018-05-25T08:53:59.065Z,4.18
2018-05-25T08:56:26.752Z,4.57
2018-05-25T08:58:54.385Z,5.68
2018-05-25T09:01:22.795Z,5.57
2018-05-25T09:03:50.460Z,4.70
2018-05-25T09:06:18.853Z,4.65
2018-05-25T09:08:47.301Z,4.57
2018-05-25T09:11:14.968Z,4.40
2018-05-25T09:13:42.655Z,4.50
2018-05-25T09:16:10.292Z,3.22
2018-05-25T09:18:37.952Z,4.37
2018-05-25T09:21:05.592Z,2.90
2018-05-25T09:23:33.265Z,4.00
2018-05-25T09:26:00.901Z,4.53
2018-05-25T09:28:28.571Z,3.77
2018-05-25T09:30:56.256Z,2.92
2018-05-25T09:33:23.921Z,3.85
2018-05-25T09:35:51.553Z,3.05
2018-05-25T09:38:19.977Z,2.58
2018-05-25T09:40:47.624Z,4.10
2018-05-25T09:43:16.121Z,3.55
2018-05-25T09:45:43.772Z,3.85
2018-05-25T09:48:11.457Z,2.33
2018-05-25T09:50:39.152Z,2.72
2018-05-25T09:53:06.868Z,3.12
2018-05-25T09:55:34.496Z,2.33
2018-05-25T09:58:02.200Z,3.70
2018-05-25T10:00:29.837Z,4.10
2018-05-25T10:02:58.278Z,3.00
2018-05-25T10:05:25.972Z,3.00
2018-05-25T10:07:53.608Z,2.40
2018-05-25T10:10:21.278Z,2.25
2018-05-25T10:12:48.928Z,2.67
2018-05-25T10:15:16.620Z,2.90
2018-05-25T10:17:44.285Z,3.67
2018-05-25T10:20:11.954Z,3.70
2018-05-25T10:22:39.597Z,3.80
2018-05-25T10:25:07.278Z,1.73
2018-05-25T10:27:35.683Z,2.67
2018-05-25T10:30:04.209Z,2.33
2018-05-25T10:32:31.936Z,2.00
2018-05-25T10:35:00.412Z,1.62
2018-05-25T10:37:28.053Z,2.00
2018-05-25T10:39:55.724Z,1.70
2018-05-25T10:42:23.368Z,2.13
2018-05-25T10:44:51.820Z,2.03
2018-05-25T10:47:19.508Z,2.17
2018-05-25T10:49:47.189Z,2.55
2018-05-25T10:52:14.878Z,2.12
2018-05-25T10:54:42.570Z,2.75
2018-05-25T10:57:10.260Z,1.95
2018-05-25T10:59:37.909Z,1.70
2018-05-25T11:02:05.597Z,2.25
2018-05-25T11:04:33.236Z,2.25
2018-05-25T11:07:01.676Z,3.00
2018-05-25T11:09:29.305Z,3.15
2018-05-25T11:11:57.745Z,1.90
2018-05-25T11:14:25.375Z,2.22
2018-05-25T11:16:53.085Z,2.03
2018-05-25T11:19:20.726Z,2.10
2018-05-25T11:21:49.165Z,2.10
2018-05-25T11:24:16.823Z,3.08
2018-05-25T11:26:44.527Z,2.80
2018-05-25T11:29:12.180Z,3.10
2018-05-25T11:31:39.862Z,3.40
2018-05-25T11:34:07.513Z,3.90
2018-05-25T11:36:35.209Z,2.50
2018-05-25T11:39:02.875Z,2.65
2018-05-25T11:41:30.540Z,2.80
2018-05-25T11:43:58.232Z,3.20
2018-05-25T11:46:25.868Z,2.97
2018-05-25T11:48:53.536Z,4.00
2018-05-25T11:51:21.206Z,3.10
2018-05-25T11:53:48.893Z,2.90
2018-05-25T11:56:16.576Z,3.20
2018-05-25T11:58:44.259Z,2.92
2018-05-25T12:01:11.889Z,3.20
2018-05-25T12:03:40.333Z,2.83
2018-05-25T12:06:07.956Z,2.58
2018-05-25T12:08:36.396Z,2.70
2018-05-25T12:11:04.042Z,2.92
2018-05-25T12:13:31.735Z,3.40
2018-05-25T12:15:59.398Z,2.72
2018-05-25T12:18:27.165Z,4.45
2018-05-25T12:20:54.812Z,2.80
2018-05-25T12:23:23.247Z,2.47
2018-05-25T12:25:50.907Z,2.62
2018-05-25T12:28:18.625Z,2.53
2018-05-25T12:30:46.304Z,2.60
2018-05-25T12:33:13.952Z,2.47
2018-05-25T12:35:41.636Z,2.85
2018-05-25T12:38:09.277Z,2.70
2018-05-25T12:40:36.944Z,2.60
2018-05-25T12:43:04.624Z,2.40
2018-05-25T12:45:32.308Z,4.03
2018-05-25T12:48:00.029Z,2.95
2018-05-25T12:50:27.794Z,2.60
2018-05-25T12:52:55.522Z,2.47
2018-05-25T12:55:23.192Z,2.62
2018-05-25T12:57:50.827Z,2.60
2018-05-25T13:00:18.537Z,2.12
2018-05-25T13:02:46.243Z,2.10
2018-05-25T13:05:13.920Z,2.10
2018-05-25T13:07:41.584Z,2.20
2018-05-25T13:10:09.254Z,2.42
2018-05-25T13:12:36.906Z,2.55
2018-05-25T13:15:04.581Z,2.42
2018-05-25T13:17:32.278Z,2.60
2018-05-25T13:19:59.981Z,2.40
2018-05-25T13:22:27.640Z,2.28
2018-05-25T13:24:55.321Z,2.58
2018-05-25T13:27:22.950Z,2.47
2018-05-25T13:29:50.654Z,3.08
2018-05-25T13:32:18.353Z,2.30
2018-05-25T13:34:45.990Z,2.53
2018-05-25T13:37:13.665Z,2.57
2018-05-25T13:39:41.301Z,2.30
2018-05-25T13:42:09.191Z,2.23
2018-05-25T13:44:36.831Z,2.90
2018-05-25T13:47:05.325Z,2.30
2018-05-25T13:49:33.017Z,2.45
2018-05-25T13:52:00.717Z,2.60
2018-05-25T13:54:28.403Z,2.30
2018-05-25T13:56:56.077Z,2.40
2018-05-25T13:59:23.712Z,2.20
2018-05-25T14:01:52.153Z,1.97
2018-05-25T14:04:19.800Z,2.10
2018-05-25T14:06:47.484Z,2.00
2018-05-25T14:09:15.168Z,2.20
2018-05-25T14:11:42.879Z,1.90
2018-05-25T14:14:10.522Z,2.05
2018-05-25T14:16:38.161Z,2.12
2018-05-25T14:19:05.832Z,2.20
2018-05-25T14:21:33.470Z,2.20
2018-05-25T14:24:01.215Z,1.90
2018-05-25T14:26:28.877Z,2.20
2018-05-25T14:28:56.619Z,2.30
2018-05-25T14:31:25.026Z,2.25
2018-05-25T14:33:52.700Z,2.40
2018-05-25T14:36:20.328Z,2.15
2018-05-25T14:38:48.056Z,2.20
2018-05-25T14:41:15.720Z,2.30
2018-05-25T14:43:43.397Z,2.60
2018-05-25T14:46:11.036Z,2.40
2018-05-25T14:48:38.700Z,3.47
2018-05-25T14:51:06.338Z,2.08
2018-05-25T14:53:34.032Z,2.40
2018-05-25T14:56:01.719Z,2.20
2018-05-25T14:58:29.428Z,2.03
2018-05-25T15:00:57.125Z,2.30
2018-05-25T15:03:24.781Z,2.10
2018-05-25T15:05:52.414Z,2.20
2018-05-25T15:08:20.061Z,1.95
2018-05-25T15:10:47.751Z,2.17
2018-05-25T15:13:15.432Z,1.92
2018-05-25T15:15:43.150Z,1.90
2018-05-25T15:18:11.523Z,2.37
2018-05-25T15:20:39.973Z,2.50
2018-05-25T15:23:07.599Z,2.20
2018-05-25T15:25:35.283Z,2.00
2018-05-25T15:28:02.952Z,2.20
2018-05-25T15:30:30.713Z,2.17
2018-05-25T15:32:59.128Z,2.50
2018-05-25T15:35:26.869Z,2.20
2018-05-25T15:37:54.501Z,2.10
2018-05-25T15:40:22.171Z,2.00
2018-05-25T15:42:49.827Z,2.85
2018-05-25T15:45:17.545Z,2.10
2018-05-25T15:47:45.200Z,2.25
2018-05-25T15:50:12.881Z,1.75
2018-05-25T15:52:40.515Z,2.10
2018-05-25T15:55:08.192Z,1.80
2018-05-25T15:57:35.841Z,1.90
2018-05-25T16:00:04.328Z,2.20
2018-05-25T16:02:32.797Z,1.80
2018-05-25T16:05:00.479Z,1.80
2018-05-25T16:07:28.965Z,1.92
2018-05-25T16:09:56.661Z,2.03
2018-05-25T16:12:24.332Z,1.87
2018-05-25T16:14:52.744Z,2.03
2018-05-25T16:17:21.181Z,3.12
2018-05-25T16:19:48.884Z,2.30
2018-05-25T16:22:16.569Z,2.00
2018-05-25T16:24:44.989Z,1.62
2018-05-25T16:27:12.669Z,1.80
2018-05-25T16:29:40.303Z,1.87
2018-05-25T16:32:08.749Z,1.87
2018-05-25T16:34:36.376Z,1.73
2018-05-25T16:37:04.867Z,1.90
2018-05-25T16:39:33.284Z,2.10
2018-05-25T16:42:00.953Z,1.92
2018-05-25T16:44:28.597Z,1.70
2018-05-25T16:46:56.265Z,1.87
2018-05-25T16:49:23.900Z,2.35
2018-05-25T16:51:51.565Z,1.90
2018-05-25T16:54:19.256Z,2.00
2018-05-25T16:56:46.978Z,1.80
2018-05-25T16:59:15.423Z,1.80
2018-05-25T17:01:43.108Z,1.90
2018-05-25T17:04:10.741Z,1.75
2018-05-25T17:06:38.433Z,2.03
2018-05-25T17:09:06.070Z,2.08
2018-05-25T17:11:33.761Z,2.20
2018-05-25T17:14:01.429Z,2.40
2018-05-25T17:16:29.896Z,3.40
2018-05-25T17:18:57.661Z,1.67
2018-05-25T17:21:25.315Z,1.97
2018-05-25T17:23:52.981Z,2.40
2018-05-25T17:26:20.620Z,1.90
2018-05-25T17:28:48.306Z,2.90
2018-05-25T17:31:15.948Z,2.35
2018-05-25T17:33:44.397Z,2.20
2018-05-25T17:36:12.070Z,1.90
2018-05-25T17:38:39.732Z,1.70
2018-05-25T17:41:07.401Z,1.77
2018-05-25T17:43:35.072Z,3.77
2018-05-25T17:46:02.756Z,1.75
2018-05-25T17:48:30.505Z,1.80
2018-05-25T17:50:58.234Z,1.90
2018-05-25T17:53:25.963Z,1.83
2018-05-25T17:55:53.608Z,2.17
2018-05-25T17:58:21.263Z,2.10
2018-05-25T18:00:48.928Z,1.83
2018-05-25T18:03:16.566Z,1.83
2018-05-25T18:05:44.241Z,2.30
2018-05-25T18:08:11.879Z,2.10
2018-05-25T18:10:40.325Z,2.05
2018-05-25T18:13:07.960Z,2.90
2018-05-25T18:15:35.640Z,1.87
2018-05-25T18:18:03.329Z,1.70
2018-05-25T18:20:31.065Z,2.00
2018-05-25T18:22:59.524Z,2.05
2018-05-25T18:25:27.237Z,2.10
2018-05-25T18:27:54.993Z,2.30
2018-05-25T18:30:23.439Z,1.92
2018-05-25T18:32:51.088Z,2.00
2018-05-25T18:35:18.764Z,2.03
2018-05-25T18:37:46.401Z,1.73
2018-05-25T18:40:14.076Z,1.93
2018-05-25T18:42:41.722Z,2.30
2018-05-25T18:45:09.405Z,2.00
2018-05-25T18:47:37.056Z,2.50
2018-05-25T18:50:04.781Z,2.10
2018-05-25T18:52:33.195Z,2.60
2018-05-25T18:55:00.881Z,2.97
2018-05-25T18:57:28.592Z,2.42
2018-05-25T18:59:56.344Z,2.60
2018-05-25T19:02:24.024Z,2.22
2018-05-25T19:04:51.693Z,2.10
2018-05-25T19:07:19.381Z,2.35
2018-05-25T19:09:47.026Z,4.07
2018-05-25T19:12:14.688Z,2.40
2018-05-25T19:14:42.332Z,3.33
2018-05-25T19:17:09.999Z,2.42
2018-05-25T19:19:37.644Z,2.50
2018-05-25T19:22:05.320Z,2.60
2018-05-25T19:24:33.848Z,2.30
2018-05-25T19:27:01.529Z,2.37
2018-05-25T19:29:29.952Z,2.28
2018-05-25T19:31:57.657Z,2.40
2018-05-25T19:34:25.486Z,2.20
2018-05-25T19:36:53.965Z,2.30
2018-05-25T19:39:22.380Z,2.00
2018-05-25T19:41:50.045Z,2.17
2018-05-25T19:44:18.440Z,2.10
2018-05-25T19:46:46.875Z,1.92
2018-05-25T19:49:14.504Z,1.40
2018-05-25T19:51:44.843Z,1.83
2018-05-25T19:54:13.236Z,1.77
2018-05-25T19:56:40.921Z,1.60
2018-05-25T19:59:08.557Z,3.00
2018-05-25T20:01:36.193Z,2.12
2018-05-25T20:04:03.954Z,1.80
2018-05-25T20:06:31.600Z,2.33
2018-05-25T20:09:00.049Z,2.12
2018-05-25T20:11:27.712Z,2.08
2018-05-25T20:13:55.388Z,2.07
2018-05-25T20:16:23.025Z,1.70
2018-05-25T20:18:50.688Z,1.90
2018-05-25T20:21:19.097Z,2.20
2018-05-25T20:23:46.765Z,2.40
2018-05-25T20:26:14.401Z,2.12
2018-05-25T20:28:42.069Z,1.77
2018-05-25T20:31:09.696Z,1.95
2018-05-25T20:33:37.380Z,2.23
2018-05-25T20:36:05.021Z,1.80
2018-05-25T20:38:33.516Z,1.90
2018-05-25T20:41:01.197Z,1.85
2018-05-25T20:43:28.928Z,2.00
2018-05-25T20:45:56.587Z,2.00
2018-05-25T20:48:24.282Z,1.83
2018-05-25T20:50:51.924Z,2.10
2018-05-25T20:53:19.655Z,1.83
2018-05-25T20:55:48.060Z,2.00
2018-05-25T20:58:15.691Z,2.20
2018-05-25T21:00:43.360Z,2.12
2018-05-25T21:03:11.000Z,2.00
2018-05-25T21:05:38.678Z,1.90
2018-05-25T21:08:06.321Z,2.25
2018-05-25T21:10:33.992Z,2.10
2018-05-25T21:13:02.445Z,1.87
2018-05-25T21:15:30.135Z,1.90
2018-05-25T21:17:57.785Z,2.03
2018-05-25T21:20:25.489Z,2.20
2018-05-25T21:22:53.928Z,1.50
2018-05-25T21:25:21.617Z,1.80
2018-05-25T21:27:49.253Z,1.70
2018-05-25T21:30:16.920Z,2.07
2018-05-25T21:32:45.321Z,2.00
2018-05-25T21:35:12.984Z,2.10
2018-05-25T21:37:41.384Z,2.33
2018-05-25T21:40:09.052Z,2.03
2018-05-25T21:42:36.714Z,1.90
2018-05-25T21:45:04.437Z,2.20
2018-05-25T21:47:32.100Z,2.03
2018-05-25T21:50:00.157Z,2.28
2018-05-25T21:52:27.850Z,1.83
2018-05-25T21:54:55.550Z,2.00
2018-05-25T21:57:23.204Z,2.10
2018-05-25T21:59:50.832Z,2.10
2018-05-25T22:02:19.276Z,2.47
2018-05-25T22:04:46.916Z,2.33
2018-05-25T22:07:14.584Z,2.10
2018-05-25T22:09:42.984Z,2.13
2018-05-25T22:12:10.701Z,2.50
2018-05-25T22:14:38.328Z,2.47
2018-05-25T22:17:06.777Z,2.05
2018-05-25T22:19:34.413Z,2.67
2018-05-25T22:22:02.089Z,2.20
2018-05-25T22:24:29.732Z,2.30
2018-05-25T22:26:58.191Z,1.92
2018-05-25T22:29:25.885Z,2.37
2018-05-25T22:31:54.360Z,1.92
2018-05-25T22:34:21.997Z,2.70
2018-05-25T22:36:49.670Z,2.50
2018-05-25T22:39:17.305Z,2.30
2018-05-25T22:41:50.608Z,2.40
2018-05-25T22:44:30.860Z,2.50
2018-05-25T22:47:10.421Z,2.60
2018-05-25T22:49:49.913Z,2.78
2018-05-25T22:52:22.729Z,2.40
2018-05-25T22:54:52.296Z,2.20
2018-05-25T22:57:20.735Z,2.63
2018-05-25T22:59:48.368Z,2.33
2018-05-25T23:02:16.804Z,2.30
2018-05-25T23:04:44.433Z,2.30
2018-05-25T23:07:12.874Z,2.50
2018-05-25T23:09:40.520Z,2.05
2018-05-25T23:12:08.273Z,2.33
2018-05-25T23:14:36.676Z,2.15
2018-05-25T23:17:04.352Z,2.53
2018-05-25T23:19:32.001Z,2.28
2018-05-25T23:22:00.436Z,3.00
2018-05-25T23:24:28.067Z,2.37
2018-05-25T23:26:56.466Z,2.50
2018-05-25T23:29:24.908Z,2.33
2018-05-25T23:31:52.584Z,2.47
2018-05-25T23:34:20.253Z,2.58
2018-05-25T23:36:47.936Z,2.25
2018-05-25T23:39:15.610Z,2.70
2018-05-25T23:41:43.249Z,2.42
2018-05-25T23:44:10.928Z,2.40
2018-05-25T23:46:38.563Z,2.45
2018-05-25T23:49:06.254Z,2.58
2018-05-25T23:51:34.673Z,3.10
2018-05-25T23:54:02.351Z,2.80
2018-05-25T23:56:29.981Z,2.67
2018-05-25T23:58:57.649Z,2.83
